Terminal Aerodrome Forecast
Issued by NWS

Current Version | Previous Version | Graphics & Text | Print | Product List | Glossary On
Versions: 1 2 3 4 5 6 7 8 9 10 11 12 13 14 15 16 17 18 19 20 21 22 23 24 25 26 27 28 29 30 31
000
FTUS41 KPBZ 252300
TAFMGW
TAF
KMGW 252320Z 2600/2624 33005KT P6SM BKN200
     FM260800 36005KT 3SM -SN OVC020
     FM261000 03005KT 1SM -SN BR OVC010
     FM262200 VRB03KT 5SM BR OVC010=

USA.gov is the U.S. government's official web portal to all federal, state and local government web resources and services.